Time,TemperatureF,DewpointF,PressureIn,WindDirection,WindDirectionDegrees,WindSpeedMPH,WindSpeedGustMPH,Humidity,HourlyPrecipIn,Conditions,Clouds,dailyrainin,SoftwareType,DateUTC
2013-04-16 00:05:00,41.6,28.3,30.29,South,180,4.0,11.0,59,0.00,,,-99.99,WeatherLink 5.5,2013-04-16 04:05:00,
2013-04-16 01:05:00,41.6,28.3,30.29,South,180,4.0,11.0,59,0.00,,,-99.99,WeatherLink 5.5,2013-04-16 05:05:00,
2013-04-16 02:05:00,40.8,30.3,30.29,SSE,157,2.0,8.0,66,0.00,,,-99.99,WeatherLink 5.5,2013-04-16 06:05:00,
2013-04-16 03:05:00,41.1,29.5,30.27,South,180,5.0,12.0,63,0.00,,,-99.99,WeatherLink 5.5,2013-04-16 07:05:00,
2013-04-16 04:05:00,41.1,30.2,30.26,SSE,157,5.0,13.0,65,0.00,,,-99.99,WeatherLink 5.5,2013-04-16 08:05:00,
2013-04-16 05:05:00,40.9,32.9,30.26,South,180,5.0,11.0,73,0.00,,,-99.99,WeatherLink 5.5,2013-04-16 09:05:00,
2013-04-16 06:05:00,41.1,35.1,30.26,SSE,157,6.0,16.0,79,0.00,,,-99.99,WeatherLink 5.5,2013-04-16 10:05:00,
2013-04-16 07:05:00,40.9,35.5,30.25,SSE,157,6.0,14.0,81,0.00,,,-99.99,WeatherLink 5.5,2013-04-16 11:05:00,
2013-04-16 08:05:00,41.6,37.1,30.27,SSE,157,4.0,13.0,84,0.00,,,-99.99,WeatherLink 5.5,2013-04-16 12:05:00,
2013-04-16 09:05:00,42.8,38.9,30.27,SSE,157,6.0,13.0,86,0.00,,,-99.99,WeatherLink 5.5,2013-04-16 13:05:00,
2013-04-16 10:05:00,49.2,42.0,30.26,SSE,157,5.0,14.0,76,0.00,,,-99.99,WeatherLink 5.5,2013-04-16 14:05:00,
2013-04-16 11:05:00,52.8,43.3,30.25,South,180,7.0,17.0,70,0.00,,,-99.99,WeatherLink 5.5,2013-04-16 15:05:00,
2013-04-16 12:05:00,56.7,45.1,30.22,SW,225,6.0,17.0,65,0.00,,,-99.99,WeatherLink 5.5,2013-04-16 16:05:00,
2013-04-16 13:05:00,59.8,46.3,30.20,SW,225,8.0,21.0,61,0.00,,,-99.99,WeatherLink 5.5,2013-04-16 17:05:00,
2013-04-16 14:05:00,61.2,46.8,30.17,SW,225,11.0,26.0,59,0.00,,,-99.99,WeatherLink 5.5,2013-04-16 18:05:00,
2013-04-16 15:05:00,61.5,47.5,30.16,SW,225,12.0,26.0,60,0.00,,,-99.99,WeatherLink 5.5,2013-04-16 19:05:00,
2013-04-16 16:05:00,56.7,48.5,30.15,SW,225,9.0,25.0,74,0.00,,,-99.99,WeatherLink 5.5,2013-04-16 20:05:00,
2013-04-16 17:05:00,56.5,48.7,30.13,SW,225,7.0,18.0,75,0.00,,,-99.99,WeatherLink 5.5,2013-04-16 21:05:00,
2013-04-16 18:05:00,56.0,49.2,30.10,South,180,6.0,24.0,78,0.00,,,-99.99,WeatherLink 5.5,2013-04-16 22:05:00,
2013-04-16 19:05:00,56.2,49.4,30.07,South,180,8.0,20.0,78,0.00,,,-99.99,WeatherLink 5.5,2013-04-16 23:05:00,
2013-04-16 20:05:00,55.6,49.9,30.04,South,180,7.0,19.0,81,0.00,,,-99.99,WeatherLink 5.5,2013-04-17 00:05:00,
2013-04-16 21:05:00,54.8,49.7,30.06,SSW,202,5.0,16.0,83,0.00,,,-99.99,WeatherLink 5.5,2013-04-17 01:05:00,
2013-04-16 22:05:00,54.4,50.6,30.06,SW,225,6.0,17.0,87,0.00,,,-99.99,WeatherLink 5.5,2013-04-17 02:05:00,
2013-04-16 23:05:00,53.6,50.1,30.04,SW,225,9.0,21.0,88,0.00,,,-99.99,WeatherLink 5.5,2013-04-17 03:05:00,